Share

Acapulco G. Alvarez, Mexico

12:59 AM CDT on April 24, 2014 (GMT -0500)
Gen Juan N Alvarez International (MMAA) Elev 16 ft | 16.76 °N, 99.75 °W | Change Station

Current weather conditions updated 14 minutes ago

Clear
Clear
81 °F
Feels Like 86 °F
N
2
Wind Variable Wind from NW
Sunrise 7:17 AM
Sunset 7:56 PM
Moon Waning Crescent

Today is forecast to be Warmer than yesterday.

Pressure 29.89 in
Visibility 8.0 miles
Clouds Clear
Heat Index 86 °F
Dew Point 75 °F
Humidity 84%
Rainfall 0.00 in
Snow Depth Not available.
UV 0 out of 16
Pollen Not available.
Air Quality Not available.
Flu Activity Not available.
METAR MMAA 240545Z 31002KT 8SM SKC 27/24 A2987 RMK SLP121 52013 907

More Conditions Fewer Conditions

Pressure 29.89 in
Visibility 8.0 miles
Clouds Clear
Heat Index 86 °F
Dew Point 75 °F
Humidity 84%
Rainfall 0.00 in
Snow Depth Not available.
UV 0 out of 16
Pollen Not available.
Air Quality Not available.
Flu Activity Not available.
METAR MMAA 240545Z 31002KT 8SM SKC 27/24 A2987 RMK SLP121 52013 907

More Conditions Fewer Conditions

10-Day Weather Forecast

Almanac

Astronomy

Apr. 24, 2014 Rise Set
Actual Time 7:17 AM CDT 7:56 PM CDT
Civil Twilight 6:55 AM CDT 8:19 PM CDT
Nautical Twilight 6:29 AM CDT 8:45 PM CDT
Astronomical Twilight 6:02 AM CDT 9:11 PM CDT
Moon 3:44 AM CDT 3:54 PM CDT
Length of Visible Light 13h 23m
Length of Day
12h 39m
Tomorrow will be 0m 51s longer.
Waning Crescent, 29% of the Moon is Illuminated
Today
Waning Crescent
Apr 29
New
May 6
First Quarter
May 14
Full
May 21
Last Quarter

Yesterday's Extremes

Country Highs Country Lows

Community

  • Stacked
    Stacked
  • clouds approaching Red Sox Nation
    clouds approaching Red Sox Nation
  • Balance
    Balance
  • Nestled In
    Nestled In
  • Stunning Sunrise
    Stunning Sunrise

WunderPhotos

Upload Photos

1,704,572 photos uploaded!

WunderBlogs® & News

Nearby

Snow Depth

Not available.

Coastal Water Temperatures

Place Temperature
No Stations Reporting

Earthquake Activity

City Distance Mag. Time & Date
No recent earthquake activity has been reported nearby.
Minimum magnitude displayed is 2.5.

Nearby Weather Stations

There are no personal weather stations in this area.

What do you think?

We're not finished. Please let us know what you like, what you don't like, and what you are still missing.